createdAt,value
2022-11-30T00:00:57.269Z,10.92
2022-11-30T00:03:24.696Z,10.92
2022-11-30T00:05:51.951Z,10.72
2022-11-30T00:08:18.676Z,10.71
2022-11-30T00:10:45.221Z,10.81
2022-11-30T00:13:11.709Z,10.72
2022-11-30T00:15:38.305Z,10.72
2022-11-30T00:18:04.869Z,10.68
2022-11-30T00:20:31.849Z,10.73
2022-11-30T00:22:58.350Z,10.73
2022-11-30T00:25:25.496Z,10.73
2022-11-30T00:27:52.372Z,10.80
2022-11-30T00:30:18.897Z,10.72
2022-11-30T00:32:45.460Z,10.68
2022-11-30T00:35:12.186Z,10.77
2022-11-30T00:37:38.872Z,10.76
2022-11-30T00:40:06.290Z,10.73
2022-11-30T00:42:32.809Z,10.72
2022-11-30T00:44:59.339Z,10.71
2022-11-30T00:47:25.844Z,10.58
2022-11-30T00:49:52.396Z,10.65
2022-11-30T00:52:18.912Z,10.73
2022-11-30T00:54:45.806Z,10.75
2022-11-30T00:57:12.775Z,10.71
2022-11-30T00:59:39.326Z,10.59
2022-11-30T01:02:05.916Z,10.71
2022-11-30T01:04:32.537Z,10.55
2022-11-30T01:06:59.036Z,10.71
2022-11-30T01:09:25.552Z,10.60
2022-11-30T01:11:52.100Z,10.64
2022-11-30T01:14:18.601Z,10.67
2022-11-30T01:16:45.126Z,10.67
2022-11-30T01:19:11.641Z,10.69
2022-11-30T01:21:38.553Z,10.79
2022-11-30T01:24:05.465Z,10.84
2022-11-30T01:26:31.977Z,10.83
2022-11-30T01:28:58.489Z,10.88
2022-11-30T01:31:25.372Z,10.80
2022-11-30T01:33:53.624Z,10.89
2022-11-30T01:36:26.038Z,10.91
2022-11-30T01:38:55.295Z,10.80
2022-11-30T01:41:30.951Z,10.75
2022-11-30T01:44:06.640Z,10.76
2022-11-30T01:46:36.274Z,10.84
2022-11-30T01:49:08.709Z,10.75
2022-11-30T01:52:03.650Z,10.67
2022-11-30T01:54:36.096Z,10.80
2022-11-30T01:57:10.353Z,10.84
2022-11-30T01:59:37.130Z,11.00
2022-11-30T02:02:04.225Z,10.96
2022-11-30T02:04:35.190Z,10.85
2022-11-30T02:07:04.541Z,10.69
2022-11-30T02:09:38.034Z,10.77
2022-11-30T02:12:07.838Z,10.84
2022-11-30T02:14:50.155Z,10.73
2022-11-30T02:17:47.317Z,10.86
2022-11-30T02:20:22.833Z,10.93
2022-11-30T02:23:08.072Z,10.91
2022-11-30T02:25:40.058Z,10.91
2022-11-30T02:28:23.423Z,10.87
2022-11-30T02:30:52.550Z,10.95
2022-11-30T02:33:24.240Z,10.90
2022-11-30T02:35:55.112Z,10.88
2022-11-30T02:38:23.882Z,10.92
2022-11-30T02:40:50.411Z,10.89
2022-11-30T02:43:19.525Z,10.92
2022-11-30T02:46:04.831Z,10.74
2022-11-30T02:48:46.873Z,10.83
2022-11-30T02:51:20.032Z,10.86
2022-11-30T02:53:47.682Z,10.86
2022-11-30T02:56:14.332Z,10.90
2022-11-30T02:58:41.117Z,10.86
2022-11-30T03:01:08.024Z,10.85
2022-11-30T03:03:34.575Z,10.81
2022-11-30T03:06:01.119Z,10.85
2022-11-30T03:08:27.634Z,10.82
2022-11-30T03:10:54.131Z,10.84
2022-11-30T03:13:20.808Z,10.54
2022-11-30T03:15:48.007Z,10.74
2022-11-30T03:18:14.643Z,10.73
2022-11-30T03:20:44.986Z,10.45
2022-11-30T03:23:11.657Z,10.53
2022-11-30T03:25:38.219Z,10.56
2022-11-30T03:28:04.894Z,10.41
2022-11-30T03:30:31.458Z,10.40
2022-11-30T03:32:57.993Z,10.41
2022-11-30T03:35:24.602Z,10.51
2022-11-30T03:37:51.123Z,10.38
2022-11-30T03:40:18.639Z,10.49
2022-11-30T03:42:45.167Z,10.33
2022-11-30T03:45:11.701Z,10.29
2022-11-30T03:47:38.280Z,10.58
2022-11-30T03:50:05.370Z,10.52
2022-11-30T03:52:31.995Z,10.37
2022-11-30T03:54:58.510Z,10.55
2022-11-30T03:57:25.148Z,10.60
2022-11-30T03:59:51.807Z,10.54
2022-11-30T04:02:18.345Z,10.56
2022-11-30T04:04:45.176Z,10.63
2022-11-30T04:07:11.954Z,10.46
2022-11-30T04:09:39.141Z,10.48
2022-11-30T04:12:05.814Z,10.63
2022-11-30T04:14:32.322Z,10.51
2022-11-30T04:16:59.143Z,10.59
2022-11-30T04:19:25.645Z,10.60
2022-11-30T04:21:52.389Z,10.62
2022-11-30T04:24:18.938Z,10.64
2022-11-30T04:26:46.100Z,10.74
2022-11-30T04:29:12.914Z,10.72
2022-11-30T04:31:39.448Z,10.62
2022-11-30T04:34:06.015Z,10.68
2022-11-30T04:36:32.517Z,10.63
2022-11-30T04:38:59.065Z,10.48
2022-11-30T04:41:25.639Z,10.62
2022-11-30T04:43:52.135Z,10.64
2022-11-30T04:46:18.670Z,10.52
2022-11-30T04:48:45.234Z,10.72
2022-11-30T04:51:11.863Z,10.71
2022-11-30T04:53:38.697Z,10.75
2022-11-30T04:56:10.247Z,10.69
2022-11-30T04:58:37.046Z,10.66
2022-11-30T05:01:03.645Z,10.79
2022-11-30T05:03:30.292Z,10.82
2022-11-30T05:05:56.831Z,10.85
2022-11-30T05:08:23.342Z,10.79
2022-11-30T05:10:53.862Z,10.90
2022-11-30T05:13:21.423Z,10.79
2022-11-30T05:15:48.009Z,10.84
2022-11-30T05:18:15.799Z,10.74
2022-11-30T05:20:48.010Z,10.87
2022-11-30T05:23:14.734Z,10.86
2022-11-30T05:25:41.246Z,10.86
2022-11-30T05:28:07.916Z,10.83
2022-11-30T05:30:34.421Z,10.82
2022-11-30T05:33:00.942Z,10.75
2022-11-30T05:35:27.449Z,10.66
2022-11-30T05:37:54.024Z,10.68
2022-11-30T05:40:20.537Z,10.73
2022-11-30T05:42:47.068Z,10.62
2022-11-30T05:45:13.601Z,10.64
2022-11-30T05:47:40.165Z,10.67
2022-11-30T05:50:07.316Z,10.69
2022-11-30T05:52:33.816Z,10.69
2022-11-30T05:55:00.345Z,10.69
2022-11-30T05:57:26.854Z,10.78
2022-11-30T05:59:53.357Z,10.73
2022-11-30T06:02:25.120Z,10.80
2022-11-30T06:04:54.379Z,10.80
2022-11-30T06:07:20.912Z,10.74
2022-11-30T06:09:47.485Z,10.83
2022-11-30T06:12:13.991Z,10.44
2022-11-30T06:14:40.501Z,10.36
2022-11-30T06:17:06.990Z,10.37
2022-11-30T06:19:33.518Z,10.34
2022-11-30T06:22:00.040Z,10.39
2022-11-30T06:24:26.564Z,10.29
2022-11-30T06:26:53.074Z,10.20
2022-11-30T06:29:19.605Z,10.28
2022-11-30T06:31:46.214Z,10.46
2022-11-30T06:34:12.741Z,10.46
2022-11-30T06:36:39.344Z,10.44
2022-11-30T06:39:05.919Z,10.36
2022-11-30T06:41:32.537Z,10.10
2022-11-30T06:43:59.296Z,10.33
2022-11-30T06:46:26.901Z,10.40
2022-11-30T06:48:53.433Z,10.44
2022-11-30T06:51:20.182Z,10.48
2022-11-30T06:53:47.045Z,10.52
2022-11-30T06:56:13.642Z,10.40
2022-11-30T06:58:40.663Z,10.47
2022-11-30T07:01:09.847Z,10.59
2022-11-30T07:03:37.073Z,10.52
2022-11-30T07:06:11.865Z,10.51
2022-11-30T07:08:38.927Z,10.54
2022-11-30T07:11:06.616Z,10.54
2022-11-30T07:13:33.154Z,10.62
2022-11-30T07:16:02.539Z,10.58
2022-11-30T07:18:32.108Z,10.54
2022-11-30T07:21:03.655Z,10.60
2022-11-30T07:23:55.502Z,10.70
2022-11-30T07:26:23.693Z,10.80
2022-11-30T07:28:54.811Z,10.85
2022-11-30T07:31:30.525Z,10.86
2022-11-30T07:33:58.487Z,10.79
2022-11-30T07:36:26.332Z,10.84
2022-11-30T07:38:52.900Z,10.78
2022-11-30T07:41:19.422Z,10.90
2022-11-30T07:43:45.970Z,10.86
2022-11-30T07:46:14.441Z,11.04
2022-11-30T07:48:42.485Z,10.97
2022-11-30T07:51:20.616Z,11.04
2022-11-30T07:53:47.645Z,11.02
2022-11-30T07:56:17.062Z,11.04
2022-11-30T07:58:43.641Z,11.23
2022-11-30T08:01:13.629Z,11.11
2022-11-30T08:03:40.244Z,11.11
2022-11-30T08:06:15.278Z,11.19
2022-11-30T08:08:44.570Z,11.14
2022-11-30T08:11:14.811Z,11.12
2022-11-30T08:13:41.832Z,11.20
2022-11-30T08:16:12.438Z,11.20
2022-11-30T08:18:40.142Z,11.19
2022-11-30T08:21:08.417Z,11.26
2022-11-30T08:23:38.043Z,11.13
2022-11-30T08:26:12.120Z,11.32
2022-11-30T08:28:39.227Z,11.34
2022-11-30T08:31:13.084Z,11.42
2022-11-30T08:33:39.541Z,11.46
2022-11-30T08:36:27.150Z,11.48
2022-11-30T08:38:54.060Z,11.42
2022-11-30T08:41:22.294Z,11.48
2022-11-30T08:43:50.191Z,11.53
2022-11-30T08:49:22.573Z,11.48
2022-11-30T08:52:16.529Z,11.46
2022-11-30T08:54:44.744Z,11.59
2022-11-30T08:57:11.477Z,11.61
2022-11-30T08:59:38.253Z,11.54
2022-11-30T09:02:04.855Z,11.61
2022-11-30T09:04:31.377Z,11.59
2022-11-30T09:06:59.212Z,11.66
2022-11-30T09:09:26.337Z,11.61
2022-11-30T09:11:52.856Z,11.61
2022-11-30T09:14:19.351Z,11.57
2022-11-30T09:16:45.869Z,11.64
2022-11-30T09:19:12.404Z,11.60
2022-11-30T09:21:39.071Z,11.61
2022-11-30T09:24:05.792Z,11.65
2022-11-30T09:26:32.429Z,11.66
2022-11-30T09:28:58.932Z,11.58
2022-11-30T09:31:27.163Z,11.66
2022-11-30T09:33:56.415Z,11.78
2022-11-30T09:36:27.159Z,11.61
2022-11-30T09:38:55.427Z,11.59
2022-11-30T09:41:27.904Z,11.51
2022-11-30T09:43:57.436Z,11.53
2022-11-30T09:46:30.411Z,11.63
2022-11-30T09:49:03.907Z,12.02
2022-11-30T09:51:41.651Z,12.13
2022-11-30T09:54:14.365Z,11.80
2022-11-30T09:56:43.797Z,11.72
2022-11-30T09:59:19.593Z,11.75
2022-11-30T10:01:52.086Z,11.72
2022-11-30T10:04:29.880Z,11.73
2022-11-30T10:07:12.729Z,11.72
2022-11-30T10:10:23.743Z,11.89
2022-11-30T10:12:48.972Z,11.74
2022-11-30T10:15:27.688Z,11.67
2022-11-30T10:17:54.211Z,11.68
2022-11-30T10:20:51.704Z,11.70
2022-11-30T10:23:45.515Z,11.71
2022-11-30T10:26:16.721Z,11.50
2022-11-30T10:28:53.501Z,11.69
2022-11-30T10:31:30.044Z,11.70
2022-11-30T10:34:03.337Z,11.76
2022-11-30T10:36:37.945Z,11.88
2022-11-30T10:39:29.537Z,11.96
2022-11-30T10:42:04.464Z,11.95
2022-11-30T10:44:35.959Z,11.91
2022-11-30T10:47:16.854Z,11.94
2022-11-30T10:49:48.843Z,12.12
2022-11-30T10:52:21.056Z,12.10
2022-11-30T10:54:49.962Z,12.14
2022-11-30T10:57:16.559Z,12.09
2022-11-30T10:59:50.525Z,12.00
2022-11-30T11:02:55.951Z,12.25
2022-11-30T11:05:26.906Z,12.30
2022-11-30T11:08:04.333Z,12.36
2022-11-30T11:10:34.736Z,12.41
2022-11-30T11:13:01.426Z,12.39
2022-11-30T11:15:30.105Z,12.48
2022-11-30T11:18:21.668Z,12.39
2022-11-30T11:20:48.471Z,12.48
2022-11-30T11:23:26.268Z,12.50
2022-11-30T11:25:53.281Z,12.64
2022-11-30T11:28:21.964Z,12.69
2022-11-30T11:30:48.735Z,12.57
2022-11-30T11:33:15.248Z,12.70
2022-11-30T11:36:08.092Z,12.92
2022-11-30T11:38:41.936Z,12.96
2022-11-30T11:41:38.249Z,12.95
2022-11-30T11:44:21.401Z,13.06
2022-11-30T11:46:56.337Z,12.97
2022-11-30T11:49:25.736Z,12.99
2022-11-30T11:52:02.023Z,12.97
2022-11-30T11:54:34.595Z,12.97
2022-11-30T11:57:02.183Z,12.81
2022-11-30T11:59:38.165Z,12.78
2022-11-30T12:02:07.669Z,12.86
2022-11-30T12:04:58.008Z,12.90
2022-11-30T12:07:44.444Z,12.67
2022-11-30T12:10:53.064Z,12.63
2022-11-30T12:13:22.969Z,12.55
2022-11-30T12:16:17.293Z,12.43
2022-11-30T12:19:12.081Z,12.47
2022-11-30T12:21:52.090Z,12.09
2022-11-30T12:24:37.388Z,11.63
2022-11-30T12:27:50.464Z,12.09
2022-11-30T12:30:29.039Z,12.16
2022-11-30T12:33:12.718Z,12.26
2022-11-30T12:35:58.590Z,12.25
2022-11-30T12:38:47.776Z,12.19
2022-11-30T12:41:26.352Z,12.23
2022-11-30T12:44:00.692Z,12.13
2022-11-30T12:46:58.316Z,12.12
2022-11-30T12:49:52.188Z,11.92
2022-11-30T12:52:55.419Z,12.09
2022-11-30T12:55:46.221Z,12.18
2022-11-30T12:58:27.886Z,12.18
2022-11-30T13:01:21.541Z,12.22
2022-11-30T13:03:58.325Z,12.25
2022-11-30T13:06:34.493Z,12.25
2022-11-30T13:09:17.082Z,12.23
2022-11-30T13:11:49.243Z,12.24
2022-11-30T13:14:23.116Z,12.32
2022-11-30T13:16:59.650Z,12.43
2022-11-30T13:19:58.166Z,12.37
2022-11-30T13:22:46.914Z,12.42
2022-11-30T13:25:16.460Z,12.33
2022-11-30T13:27:58.587Z,12.37
2022-11-30T13:30:43.584Z,12.28
2022-11-30T13:33:35.173Z,12.22
2022-11-30T13:36:06.739Z,12.14
2022-11-30T13:38:38.007Z,12.11
2022-11-30T13:41:07.454Z,12.24
2022-11-30T13:43:45.110Z,12.22
2022-11-30T13:46:21.895Z,12.25
2022-11-30T13:48:48.886Z,12.37
2022-11-30T13:51:36.805Z,12.27
2022-11-30T13:54:46.621Z,12.38
2022-11-30T13:57:28.873Z,12.37
2022-11-30T14:00:00.365Z,12.28
2022-11-30T14:05:17.459Z,12.30
2022-11-30T14:07:47.594Z,12.26
2022-11-30T14:11:15.503Z,12.26
2022-11-30T14:13:42.266Z,12.19
2022-11-30T14:16:27.566Z,12.08
2022-11-30T14:18:56.143Z,12.05
2022-11-30T14:21:29.165Z,12.12
2022-11-30T14:24:06.830Z,12.11
2022-11-30T14:26:44.599Z,12.23
2022-11-30T14:29:18.684Z,12.07
2022-11-30T14:31:47.917Z,12.07
2022-11-30T14:34:28.124Z,12.07
2022-11-30T14:37:02.644Z,12.10
2022-11-30T14:39:43.572Z,11.97
2022-11-30T14:42:30.493Z,12.07
2022-11-30T14:44:57.676Z,11.94
2022-11-30T14:47:25.989Z,12.04
2022-11-30T14:49:55.173Z,12.00
2022-11-30T14:52:37.780Z,11.90
2022-11-30T14:55:23.096Z,11.91
2022-11-30T14:58:17.934Z,11.90
2022-11-30T15:00:45.373Z,11.85
2022-11-30T15:03:27.073Z,11.80
2022-11-30T15:05:59.701Z,11.83
2022-11-30T15:08:34.872Z,11.76
2022-11-30T15:11:07.509Z,11.73
2022-11-30T15:13:39.314Z,11.80
2022-11-30T15:16:26.107Z,11.66
2022-11-30T15:18:55.486Z,11.46
2022-11-30T15:21:30.656Z,11.66
2022-11-30T15:24:00.336Z,11.46
2022-11-30T15:26:48.395Z,11.58
2022-11-30T15:29:44.034Z,11.24
2022-11-30T15:32:20.291Z,11.21
2022-11-30T15:34:56.538Z,11.23
2022-11-30T15:37:37.893Z,11.08
2022-11-30T15:40:07.086Z,11.12
2022-11-30T15:42:43.768Z,11.37
2022-11-30T15:45:35.085Z,11.31
2022-11-30T15:48:03.649Z,11.30
2022-11-30T15:50:32.361Z,11.13
2022-11-30T15:53:20.234Z,11.13
2022-11-30T15:55:49.419Z,11.31
2022-11-30T15:58:45.707Z,11.26
2022-11-30T16:01:13.928Z,11.20
2022-11-30T16:03:58.605Z,11.24
2022-11-30T16:06:27.538Z,11.23
2022-11-30T16:08:55.585Z,11.08
2022-11-30T16:11:22.410Z,11.17
2022-11-30T16:13:49.235Z,11.27
2022-11-30T16:16:28.150Z,11.21
2022-11-30T16:18:54.725Z,11.29
2022-11-30T16:21:21.520Z,11.12
2022-11-30T16:23:48.958Z,11.15
2022-11-30T16:29:05.081Z,11.04
2022-11-30T16:31:31.936Z,11.03
2022-11-30T16:33:58.642Z,11.07
2022-11-30T16:36:25.269Z,10.93
2022-11-30T16:38:53.108Z,11.01
2022-11-30T16:41:25.207Z,10.81
2022-11-30T16:43:54.205Z,10.99
2022-11-30T16:46:26.325Z,10.98
2022-11-30T16:48:53.608Z,11.04
2022-11-30T16:51:24.852Z,10.95
2022-11-30T16:53:52.032Z,10.97
2022-11-30T16:56:18.588Z,11.03
2022-11-30T16:58:45.890Z,11.00
2022-11-30T17:01:36.246Z,11.02
2022-11-30T17:04:24.132Z,10.80
2022-11-30T17:06:54.648Z,10.59
2022-11-30T17:09:24.050Z,10.66
2022-11-30T17:11:51.078Z,10.83
2022-11-30T17:14:18.754Z,10.87
2022-11-30T17:16:45.335Z,10.89
2022-11-30T17:19:12.220Z,10.83
2022-11-30T17:21:39.341Z,10.72
2022-11-30T17:24:06.777Z,10.73
2022-11-30T17:26:33.552Z,10.74
2022-11-30T17:29:00.156Z,10.72
2022-11-30T17:31:26.793Z,10.70
2022-11-30T17:33:53.370Z,10.61
2022-11-30T17:36:19.932Z,10.58
2022-11-30T17:38:46.671Z,10.67
2022-11-30T17:41:19.148Z,10.46
2022-11-30T17:43:46.329Z,10.56
2022-11-30T17:46:15.779Z,10.68
2022-11-30T17:48:43.760Z,10.73
2022-11-30T17:51:11.555Z,10.64
2022-11-30T17:53:39.754Z,10.51
2022-11-30T17:56:11.425Z,10.41
2022-11-30T17:58:43.388Z,10.40
2022-11-30T18:01:26.042Z,10.26
2022-11-30T18:03:53.566Z,10.24
2022-11-30T18:06:20.409Z,10.22
2022-11-30T18:08:47.220Z,10.30
2022-11-30T18:11:20.193Z,10.18
2022-11-30T18:13:47.531Z,10.31
2022-11-30T18:16:16.573Z,10.33
2022-11-30T18:18:47.753Z,10.35
2022-11-30T18:21:17.549Z,10.20
2022-11-30T18:23:44.411Z,10.20
2022-11-30T18:26:13.991Z,10.29
2022-11-30T18:28:40.787Z,10.38
2022-11-30T18:31:07.538Z,10.28
2022-11-30T18:33:35.687Z,10.25
2022-11-30T18:36:06.123Z,10.35
2022-11-30T18:38:37.482Z,10.41
2022-11-30T18:41:05.711Z,10.42
2022-11-30T18:43:33.395Z,10.37
2022-11-30T18:46:08.587Z,10.46
2022-11-30T18:48:36.331Z,10.31
2022-11-30T18:51:14.003Z,10.30
2022-11-30T18:53:40.957Z,10.23
2022-11-30T18:56:09.789Z,10.26
2022-11-30T18:58:36.345Z,10.31
2022-11-30T19:01:09.892Z,10.40
2022-11-30T19:03:37.576Z,10.53
2022-11-30T19:06:05.443Z,10.50
2022-11-30T19:08:32.120Z,10.47
2022-11-30T19:11:06.235Z,10.58
2022-11-30T19:13:33.260Z,10.53
2022-11-30T19:16:14.574Z,10.54
2022-11-30T19:18:41.338Z,10.40
2022-11-30T19:21:09.659Z,10.52
2022-11-30T19:23:37.712Z,10.55
2022-11-30T19:26:05.627Z,10.59
2022-11-30T19:28:34.065Z,10.62
2022-11-30T19:31:05.531Z,10.70
2022-11-30T19:33:34.194Z,10.72
2022-11-30T19:36:01.843Z,10.76
2022-11-30T19:38:28.356Z,10.74
2022-11-30T19:40:55.010Z,10.72
2022-11-30T19:43:21.531Z,10.74
2022-11-30T19:45:48.113Z,10.86
2022-11-30T19:48:14.871Z,10.85
2022-11-30T19:50:41.428Z,10.85
2022-11-30T19:53:07.969Z,10.91
2022-11-30T19:55:38.347Z,10.86
2022-11-30T19:58:04.874Z,10.77
2022-11-30T20:00:31.426Z,10.81
2022-11-30T20:02:58.122Z,10.85
2022-11-30T20:05:24.644Z,10.84
2022-11-30T20:07:51.313Z,10.86
2022-11-30T20:10:17.917Z,10.77
2022-11-30T20:12:44.461Z,10.80
2022-11-30T20:15:11.271Z,10.71
2022-11-30T20:17:37.775Z,10.50
2022-11-30T20:20:04.712Z,10.55
2022-11-30T20:22:33.016Z,10.66
2022-11-30T20:24:59.539Z,10.66
2022-11-30T20:27:26.211Z,10.66
2022-11-30T20:29:52.757Z,10.67
2022-11-30T20:32:19.775Z,10.66
2022-11-30T20:34:46.695Z,10.62
2022-11-30T20:37:13.480Z,10.56
2022-11-30T20:39:45.706Z,10.59
2022-11-30T20:42:12.759Z,10.64
2022-11-30T20:44:39.272Z,10.57
2022-11-30T20:47:05.826Z,10.51
2022-11-30T20:49:32.363Z,10.65
2022-11-30T20:51:58.921Z,10.70
2022-11-30T20:54:26.304Z,10.69
2022-11-30T20:56:52.824Z,10.68
2022-11-30T20:59:23.396Z,10.64
2022-11-30T21:01:50.004Z,10.70
2022-11-30T21:04:16.584Z,10.62
2022-11-30T21:06:45.320Z,10.59
2022-11-30T21:09:13.760Z,10.54
2022-11-30T21:11:40.633Z,10.51
2022-11-30T21:14:07.471Z,10.50
2022-11-30T21:16:34.153Z,10.56
2022-11-30T21:19:01.286Z,10.52
2022-11-30T21:21:33.598Z,10.57
2022-11-30T21:24:05.349Z,10.67
2022-11-30T21:26:37.841Z,10.57
2022-11-30T21:29:07.573Z,10.66
2022-11-30T21:31:34.216Z,10.63
2022-11-30T21:34:01.012Z,10.54
2022-11-30T21:36:27.895Z,10.54
2022-11-30T21:39:04.859Z,10.61
2022-11-30T21:41:33.866Z,10.63
2022-11-30T21:44:00.386Z,10.40
2022-11-30T21:46:26.953Z,10.44
2022-11-30T21:48:53.471Z,10.46
2022-11-30T21:51:23.287Z,10.57
2022-11-30T21:53:52.153Z,10.39
2022-11-30T21:56:21.012Z,10.31
2022-11-30T21:58:48.985Z,10.49
2022-11-30T22:01:18.263Z,10.52
2022-11-30T22:03:45.244Z,10.39
2022-11-30T22:06:14.937Z,10.38
2022-11-30T22:08:41.840Z,10.34
2022-11-30T22:11:09.980Z,10.42
2022-11-30T22:13:37.271Z,10.44
2022-11-30T22:16:09.705Z,10.46
2022-11-30T22:18:36.716Z,10.51
2022-11-30T22:21:30.280Z,10.60
2022-11-30T22:23:59.025Z,10.49
2022-11-30T22:26:31.030Z,10.53
2022-11-30T22:29:05.248Z,10.60
2022-11-30T22:31:34.412Z,10.56
2022-11-30T22:34:01.124Z,10.58
2022-11-30T22:36:29.871Z,10.62
2022-11-30T22:39:00.450Z,10.71
2022-11-30T22:41:27.787Z,10.76
2022-11-30T22:43:55.442Z,10.71
2022-11-30T22:46:27.771Z,10.75
2022-11-30T22:48:54.850Z,10.61
2022-11-30T22:51:27.121Z,10.67
2022-11-30T22:53:54.443Z,10.71
2022-11-30T22:56:23.751Z,10.64
2022-11-30T22:58:53.881Z,10.58
2022-11-30T23:01:25.824Z,10.67
2022-11-30T23:03:58.672Z,10.73
2022-11-30T23:06:25.219Z,10.62
2022-11-30T23:08:52.428Z,10.70
2022-11-30T23:11:22.219Z,10.76
2022-11-30T23:13:49.119Z,10.55
2022-11-30T23:16:16.952Z,10.61
2022-11-30T23:18:49.167Z,10.66
2022-11-30T23:21:19.100Z,10.56
2022-11-30T23:23:46.556Z,10.62
2022-11-30T23:26:15.544Z,10.61
2022-11-30T23:28:44.198Z,10.66
2022-11-30T23:31:32.943Z,10.68
2022-11-30T23:34:01.841Z,10.63
2022-11-30T23:36:28.355Z,10.66
2022-11-30T23:38:57.958Z,10.68
2022-11-30T23:41:24.970Z,10.58
2022-11-30T23:43:51.757Z,10.64
2022-11-30T23:46:18.386Z,10.63
2022-11-30T23:48:44.993Z,10.65
2022-11-30T23:51:11.789Z,10.62
2022-11-30T23:53:38.593Z,10.61
2022-11-30T23:56:07.612Z,10.61
2022-11-30T23:58:34.509Z,10.66
